Time;durP1;ratioP1;P1;durP2;ratioP2;P2;SDS_P1;SDS_P2;PMS_P1;PMS_P2;Temp;Humidity;BMP_temperature;BMP_pressure;BME280_temperature;BME280_humidity;BME280_pressure;Samples;Min_cycle;Max_cycle;Signal;HPM_P1;HPM_P2
2023/05/26 00:02:19;;;;;;;;;;;;;;;17.00;100.00;99576.41;5071395;28;883;-61
2023/05/26 00:04:45;;;;;;;;;;;;;;;17.04;100.00;99594.59;5071252;28;942;-61
2023/05/26 00:07:13;;;;;;;;;;;;;;;17.06;100.00;99583.75;5071298;28;879;-62
2023/05/26 00:09:40;;;;;;;;;;;;;;;17.10;100.00;99573.22;5071388;28;1949;-62
2023/05/26 00:12:06;;;;;;;;;;;;;;;17.05;100.00;99573.06;5070988;28;1479;-62
2023/05/26 00:14:33;;;;;;;;;;;;;;;16.98;100.00;99571.25;5071293;28;847;-62
2023/05/26 00:17:03;;;;;;;;;;;;;;;16.92;100.00;99578.69;5071469;28;851;-61
2023/05/26 00:19:31;;;;;;;;;;;;;;;16.86;100.00;99584.03;5075328;28;879;-61
2023/05/26 00:21:58;;;;;;;;;;;;;;;16.82;100.00;99580.59;5075240;28;855;-62
2023/05/26 00:24:25;;;;;;;;;;;;;;;16.81;100.00;99579.03;5075230;28;881;-62
2023/05/26 00:26:51;;;;;;;;;;;;;;;16.81;100.00;99579.03;5075100;28;871;-63
2023/05/26 00:29:18;;;;;;;;;;;;;;;16.81;100.00;99572.66;5073731;28;1965;-60
2023/05/26 00:31:45;;;;;;;;;;;;;;;16.84;100.00;99571.78;5075087;28;820;-61
2023/05/26 00:34:12;;;;;;;;;;;;;;;16.85;100.00;99576.88;5075198;28;812;-62
2023/05/26 00:36:39;;;;;;;;;;;;;;;16.87;100.00;99566.06;5074954;28;879;-62
2023/05/26 00:39:06;;;;;;;;;;;;;;;16.82;100.00;99574.25;5074933;28;934;-61
2023/05/26 00:41:32;;;;;;;;;;;;;;;16.78;100.00;99570.75;5074875;28;875;-63
2023/05/26 00:43:59;;;;;;;;;;;;;;;16.73;100.00;99580.50;5074913;28;828;-63
2023/05/26 00:46:28;;;;;;;;;;;;;;;16.67;100.00;99577.47;5074820;28;831;-62
2023/05/26 00:48:55;;;;;;;;;;;;;;;16.62;100.00;99580.84;5074672;28;1881;-61
2023/05/26 00:51:22;;;;;;;;;;;;;;;16.56;100.00;99579.03;5074676;28;871;-61
2023/05/26 00:53:49;;;;;;;;;;;;;;;16.56;100.00;99581.84;5073318;28;1361;-61
2023/05/26 00:56:17;;;;;;;;;;;;;;;16.54;100.00;99585.88;5074545;28;882;-61
2023/05/26 00:58:43;;;;;;;;;;;;;;;16.50;100.00;99581.63;5074507;28;816;-61
2023/05/26 01:01:10;;;;;;;;;;;;;;;16.53;100.00;99584.28;5074530;28;863;-62
2023/05/26 01:03:38;;;;;;;;;;;;;;;16.50;100.00;99584.44;5074426;28;882;-62
2023/05/26 01:06:05;;;;;;;;;;;;;;;16.54;100.00;99585.88;5075127;28;819;-62
2023/05/26 01:08:32;;;;;;;;;;;;;;;16.53;100.00;99578.72;5074466;28;870;-62
2023/05/26 01:11:02;;;;;;;;;;;;;;;16.51;100.00;99578.41;5074051;28;1939;-63
2023/05/26 01:13:34;;;;;;;;;;;;;;;16.49;100.00;99578.06;5073204;28;823;-62
2023/05/26 01:16:06;;;;;;;;;;;;;;;16.49;100.00;99580.88;5073085;28;882;-61
2023/05/26 01:18:55;;;;;;;;;;;;;;;16.51;100.00;99583.19;5073054;28;928;-63
2023/05/26 01:21:27;;;;;;;;;;;;;;;16.52;100.00;99588.31;5073273;28;886;-62
2023/05/26 01:24:12;;;;;;;;;;;;;;;16.53;100.00;99578.72;5073323;28;905;-61
2023/05/26 01:26:57;;;;;;;;;;;;;;;16.56;100.00;99576.25;5072822;28;894;-61
2023/05/26 01:29:25;;;;;;;;;;;;;;;16.52;100.00;99576.41;5072540;28;1910;-62
2023/05/26 01:31:52;;;;;;;;;;;;;;;16.51;100.00;99578.41;5072826;28;887;-61
2023/05/26 01:34:18;;;;;;;;;;;;;;;16.46;100.00;99578.97;5072761;28;820;-61
2023/05/26 01:36:45;;;;;;;;;;;;;;;16.46;100.00;99572.59;5072819;28;898;-61
2023/05/26 01:39:12;;;;;;;;;;;;;;;16.44;100.00;99570.25;5073036;28;823;-62
2023/05/26 01:41:54;;;;;;;;;;;;;;;16.40;100.00;99560.44;5072681;28;961;-61
2023/05/26 01:44:32;;;;;;;;;;;;;;;16.35;100.00;99564.59;5072621;28;812;-61
2023/05/26 01:46:59;;;;;;;;;;;;;;;16.30;100.00;99553.97;5072679;28;835;-62
2023/05/26 01:49:28;;;;;;;;;;;;;;;16.30;100.00;99565.13;5072426;28;1947;-61
2023/05/26 01:51:59;;;;;;;;;;;;;;;16.27;100.00;99564.03;5072835;28;863;-61
2023/05/26 01:54:27;;;;;;;;;;;;;;;16.23;100.00;99568.94;5072340;28;915;-62
2023/05/26 01:56:56;;;;;;;;;;;;;;;16.25;100.00;99569.28;5072512;28;917;-62
2023/05/26 01:59:23;;;;;;;;;;;;;;;16.25;100.00;99574.06;5072457;28;828;-61
2023/05/26 02:01:50;;;;;;;;;;;;;;;16.27;100.00;99566.81;5072432;28;907;-61
2023/05/26 02:04:17;;;;;;;;;;;;;;;16.30;100.00;99573.50;5072515;28;827;-61
2023/05/26 02:06:43;;;;;;;;;;;;;;;16.28;100.00;99567.59;5072238;28;859;-60
2023/05/26 02:09:10;;;;;;;;;;;;;;;16.33;100.00;99569.84;5072192;28;1885;-61
2023/05/26 02:11:37;;;;;;;;;;;;;;;16.35;100.00;99566.59;4948727;28;3532737;-61
2023/05/26 02:14:04;;;;;;;;;;;;;;;16.37;100.00;99564.91;5073168;28;865;-62
2023/05/26 02:16:32;;;;;;;;;;;;;;;16.39;100.00;99568.03;5073139;28;906;-62
2023/05/26 02:18:59;;;;;;;;;;;;;;;16.33;100.00;99572.63;5073070;28;1025;-61
2023/05/26 02:21:26;;;;;;;;;;;;;;;16.28;100.00;99573.97;5072938;28;828;-63
2023/05/26 02:23:53;;;;;;;;;;;;;;;16.25;100.00;99574.84;5071559;28;2206;-61
2023/05/26 02:26:21;;;;;;;;;;;;;;;16.21;100.00;99584.56;5072991;28;907;-61
2023/05/26 02:28:52;;;;;;;;;;;;;;;16.19;100.00;99587.00;5072770;28;867;-61
2023/05/26 02:31:18;;;;;;;;;;;;;;;16.17;100.00;99595.03;5072741;28;1905;-62
2023/05/26 02:33:45;;;;;;;;;;;;;;;16.16;100.00;99590.69;5072722;28;850;-61
2023/05/26 02:36:13;;;;;;;;;;;;;;;16.12;100.00;99590.81;5072982;28;940;-62
2023/05/26 02:38:40;;;;;;;;;;;;;;;16.08;100.00;99587.34;5072670;28;863;-62
2023/05/26 02:41:07;;;;;;;;;;;;;;;16.03;100.00;99591.47;5071891;28;848;-63
2023/05/26 02:43:34;;;;;;;;;;;;;;;15.95;100.00;99586.56;5072615;28;891;-62
2023/05/26 02:46:01;;;;;;;;;;;;;;;15.89;100.00;99597.47;5071185;28;1357;-62
2023/05/26 02:48:28;;;;;;;;;;;;;;;15.86;100.00;99593.56;5072458;28;835;-62
2023/05/26 02:50:55;;;;;;;;;;;;;;;15.84;100.00;99589.66;5072267;28;1949;-61
2023/05/26 02:53:21;;;;;;;;;;;;;;;15.85;100.00;99594.00;5072095;28;994;-61
2023/05/26 02:55:48;;;;;;;;;;;;;;;15.88;100.00;99595.91;5072435;28;812;-62
2023/05/26 02:58:15;;;;;;;;;;;;;;;15.92;100.00;99596.59;5072225;28;895;-62
2023/05/26 03:00:42;;;;;;;;;;;;;;;15.96;100.00;99597.28;5072507;28;847;-62
2023/05/26 03:03:09;;;;;;;;;;;;;;;16.03;100.00;99599.06;5072203;28;874;-62
2023/05/26 03:05:36;;;;;;;;;;;;;;;16.11;100.00;99592.03;5072006;28;1029;-62
2023/05/26 03:08:03;;;;;;;;;;;;;;;16.20;100.00;99594.16;5072080;28;938;-63
2023/05/26 03:10:32;;;;;;;;;;;;;;;16.29;100.00;99588.69;5071895;28;1921;-62
2023/05/26 03:13:00;;;;;;;;;;;;;;;16.36;100.00;99599.59;5071927;28;875;-62
2023/05/26 03:15:33;;;;;;;;;;;;;;;16.38;100.00;99591.56;5072025;28;898;-61
2023/05/26 03:18:00;;;;;;;;;;;;;;;16.38;100.00;99597.16;5072146;28;910;-61
2023/05/26 03:20:27;;;;;;;;;;;;;;;16.39;100.00;99606.31;5071825;28;871;-62
2023/05/26 03:22:53;;;;;;;;;;;;;;;16.40;100.00;99608.63;5071836;28;843;-62
2023/05/26 03:25:20;;;;;;;;;;;;;;;16.42;100.00;99619.34;5071902;28;901;-61
2023/05/26 03:27:47;;;;;;;;;;;;;;;16.45;100.00;99612.88;5071725;28;899;-62
2023/05/26 03:30:12;;;;;;;;;;;;;;;16.51;100.00;99617.47;5071910;28;1986;-61
2023/05/26 03:32:39;;;;;;;;;;;;;;;16.57;100.00;99617.66;5071727;28;804;-61
2023/05/26 03:35:06;;;;;;;;;;;;;;;16.61;100.00;99614.78;5071743;28;879;-61
2023/05/26 03:37:33;;;;;;;;;;;;;;;16.62;100.00;99619.91;5071632;28;870;-61
2023/05/26 03:40:00;;;;;;;;;;;;;;;16.62;100.00;99619.91;5071514;28;827;-61
2023/05/26 03:42:27;;;;;;;;;;;;;;;16.62;100.00;99622.69;5071607;28;835;-62
2023/05/26 03:44:53;;;;;;;;;;;;;;;16.66;100.00;99625.34;5071409;28;815;-61
2023/05/26 03:47:20;;;;;;;;;;;;;;;16.67;100.00;99615.78;5071518;28;862;-61
2023/05/26 03:49:47;;;;;;;;;;;;;;;16.68;100.00;99622.91;5071379;28;1885;-62
2023/05/26 03:52:14;;;;;;;;;;;;;;;16.70;100.00;99615.63;5071164;28;841;-61
2023/05/26 03:54:41;;;;;;;;;;;;;;;16.76;100.00;99621.44;5070119;28;1179;-62
2023/05/26 03:57:08;;;;;;;;;;;;;;;16.78;100.00;99621.75;5071373;28;902;-62
2023/05/26 03:59:35;;;;;;;;;;;;;;;16.86;100.00;99623.13;5071310;28;815;-63
2023/05/26 04:02:02;;;;;;;;;;;;;;;17.01;100.00;99628.22;5071330;28;827;-61
2023/05/26 04:04:29;;;;;;;;;;;;;;;17.08;100.00;99630.78;5071326;28;815;-61
2023/05/26 04:06:55;;;;;;;;;;;;;;;17.17;100.00;99628.06;5071258;28;947;-62
2023/05/26 04:09:22;;;;;;;;;;;;;;;17.21;100.00;99619.56;5071286;28;1937;-62
2023/05/26 04:11:49;;;;;;;;;;;;;;;17.32;100.00;99634.69;5069642;28;1475;-62
2023/05/26 04:14:15;;;;;;;;;;;;;;;17.40;100.00;99631.66;5071265;28;895;-62
2023/05/26 04:16:42;;;;;;;;;;;;;;;17.43;100.00;99636.34;5071217;28;831;-62
2023/05/26 04:19:09;;;;;;;;;;;;;;;17.39;100.00;99632.88;5071148;28;839;-62
2023/05/26 04:21:36;;;;;;;;;;;;;;;17.34;100.00;99634.25;5071042;28;843;-62
2023/05/26 04:24:03;;;;;;;;;;;;;;;17.31;100.00;99640.75;5071115;28;843;-61
2023/05/26 04:26:33;;;;;;;;;;;;;;;17.28;100.00;99642.44;5071104;28;831;-61
2023/05/26 04:29:03;;;;;;;;;;;;;;;17.32;100.00;99631.13;5071075;28;820;-61
2023/05/26 04:31:30;;;;;;;;;;;;;;;17.31;100.00;99624.75;5071029;28;823;-62
2023/05/26 04:33:59;;;;;;;;;;;;;;;17.33;100.00;99632.69;5071319;28;883;-62
2023/05/26 04:36:29;;;;;;;;;;;;;;;17.29;100.00;99632.81;5071123;28;894;-62
2023/05/26 04:38:57;;;;;;;;;;;;;;;17.33;100.00;99624.31;5071063;28;939;-62
2023/05/26 04:41:27;;;;;;;;;;;;;;;17.35;100.00;99631.00;5069632;28;1439;-62
2023/05/26 04:43:54;;;;;;;;;;;;;;;17.41;100.00;99630.41;5070831;28;911;-62
2023/05/26 04:46:21;;;;;;;;;;;;;;;17.46;100.00;99629.84;5070965;28;831;-62
2023/05/26 04:48:48;;;;;;;;;;;;;;;17.47;100.00;99623.78;5070875;28;898;-63
2023/05/26 04:51:16;;;;;;;;;;;;;;;17.49;100.00;99623.34;5070706;28;1949;-61
2023/05/26 04:53:42;;;;;;;;;;;;;;;17.56;100.00;99623.09;5070896;28;929;-62
2023/05/26 04:56:10;;;;;;;;;;;;;;;17.63;100.00;99622.06;5070808;28;828;-62
2023/05/26 04:58:37;;;;;;;;;;;;;;;17.68;100.00;99627.81;5070841;28;854;-62
2023/05/26 05:01:03;;;;;;;;;;;;;;;17.76;100.00;99625.56;5070883;28;898;-62
2023/05/26 05:03:32;;;;;;;;;;;;;;;17.88;100.00;99624.72;5071706;28;827;-62
2023/05/26 05:05:59;;;;;;;;;;;;;;;18.00;100.00;99625.09;5074428;28;807;-61
2023/05/26 05:08:25;;;;;;;;;;;;;;;18.17;100.00;99623.63;5074363;28;917;-62
2023/05/26 05:10:52;;;;;;;;;;;;;;;18.34;100.00;99629.75;5074282;28;1889;-62
2023/05/26 05:13:19;;;;;;;;;;;;;;;18.49;100.00;99624.38;5074326;28;816;-63
2023/05/26 05:15:46;;;;;;;;;;;;;;;18.65;100.00;99626.94;5074280;28;807;-63
2023/05/26 05:18:13;;;;;;;;;;;;;;;18.78;100.00;99624.03;5074186;28;883;-63
2023/05/26 05:20:40;;;;;;;;;;;;;;;18.93;100.00;99624.22;5073997;28;859;-62
2023/05/26 05:23:08;;;;;;;;;;;;;;;19.00;100.00;99615.50;5074279;28;1002;-63
2023/05/26 05:25:35;;;;;;;;;;;;;;;19.17;100.00;99638.41;5074047;28;831;-62
2023/05/26 05:28:02;;;;;;;;;;;;;;;19.26;100.00;99629.97;5074083;28;922;-62
2023/05/26 05:30:29;;;;;;;;;;;;;;;19.41;100.00;99624.53;5073856;28;1985;-62
2023/05/26 05:32:56;;;;;;;;;;;;;;;19.59;100.00;99621.72;5073946;28;871;-61
2023/05/26 05:35:22;;;;;;;;;;;;;;;19.77;100.00;99622.97;5074112;28;847;-62
2023/05/26 05:37:50;;;;;;;;;;;;;;;19.77;100.00;99617.38;5073969;28;882;-62
2023/05/26 05:43:19;;;;;;;;;;;;;;;19.71;100.00;99597.59;5073979;28;599;-62
2023/05/26 05:45:45;;;;;;;;;;;;;;;20.19;100.00;99617.41;5073927;28;871;-61
2023/05/26 05:48:12;;;;;;;;;;;;;;;20.59;100.00;99613.50;5073931;28;949;-61
2023/05/26 05:50:39;;;;;;;;;;;;;;;20.65;100.00;99610.03;5073759;28;1885;-61
2023/05/26 05:53:06;;;;;;;;;;;;;;;20.48;100.00;99612.44;5073905;28;871;-66
2023/05/26 05:55:32;;;;;;;;;;;;;;;20.72;100.00;99602.06;5073961;28;851;-62
2023/05/26 05:57:59;;;;;;;;;;;;;;;20.69;100.00;99610.66;5073671;28;820;-63
2023/05/26 06:00:26;;;;;;;;;;;;;;;20.67;100.00;99613.16;5073549;28;886;-62
2023/05/26 06:02:53;;;;;;;;;;;;;;;20.28;100.00;99616.59;5073522;28;894;-63
2023/05/26 06:05:20;;;;;;;;;;;;;;;19.97;100.00;99625.25;5073423;28;847;-64
2023/05/26 06:07:47;;;;;;;;;;;;;;;19.77;100.00;99631.38;5074121;28;832;-63
2023/05/26 06:10:14;;;;;;;;;;;;;;;19.77;100.00;99620.94;5073574;28;1885;-63
2023/05/26 06:12:40;;;;;;;;;;;;;;;19.95;100.00;99622.13;5073119;28;1259;-65
2023/05/26 06:18:27;;;;;;;;;;;;;;;20.90;100.00;99620.03;5073106;28;674;-64
2023/05/26 06:20:53;;;;;;;;;;;;;;;21.16;100.00;99623.88;5072968;28;843;-62
2023/05/26 06:23:20;;;;;;;;;;;;;;;21.79;100.00;99623.06;5073017;28;886;-62
2023/05/26 06:25:47;;;;;;;;;;;;;;;22.21;100.00;99630.41;5072984;28;836;-63
2023/05/26 06:28:14;;;;;;;;;;;;;;;22.38;100.00;99622.25;5072828;28;827;-62
2023/05/26 06:30:40;;;;;;;;;;;;;;;23.18;100.00;99630.56;5073082;28;1977;-62
2023/05/26 06:33:07;;;;;;;;;;;;;;;23.68;99.68;99632.38;5072813;28;899;-62
2023/05/26 06:35:33;;;;;;;;;;;;;;;23.74;97.46;99630.38;5072710;28;1014;-62
2023/05/26 06:38:00;;;;;;;;;;;;;;;23.32;99.23;99638.16;5072717;28;827;-63
2023/05/26 06:40:27;;;;;;;;;;;;;;;23.62;98.54;99632.34;5072685;28;820;-62
2023/05/26 06:55:05;;;;;;;;;;;;;;;25.50;89.95;99616.13;5072693;28;614;-62
2023/05/26 06:57:31;;;;;;;;;;;;;;;25.49;87.70;99615.34;5072315;28;888;-64
2023/05/26 06:59:58;;;;;;;;;;;;;;;24.13;93.14;99627.16;5072329;28;878;-65
2023/05/26 07:05:26;;;;;;;;;;;;;;;22.12;100.00;99624.91;5072171;28;622;-64
2023/05/26 07:07:53;;;;;;;;;;;;;;;21.76;100.00;99627.63;5072136;28;843;-64
2023/05/26 07:10:20;;;;;;;;;;;;;;;22.32;100.00;99632.66;5072224;28;1965;-62
2023/05/26 07:12:47;;;;;;;;;;;;;;;24.01;97.82;99629.13;5071972;28;1279;-67
2023/05/26 07:15:13;;;;;;;;;;;;;;;24.76;91.14;99635.59;5071972;28;808;-64
2023/05/26 07:17:40;;;;;;;;;;;;;;;25.53;90.23;99634.91;5071926;28;895;-64
2023/05/26 07:20:08;;;;;;;;;;;;;;;26.57;85.36;99644.53;5071836;28;823;-63
2023/05/26 07:22:35;;;;;;;;;;;;;;;27.61;82.18;99643.13;5071865;28;852;-64
2023/05/26 07:25:02;;;;;;;;;;;;;;;28.12;71.81;99637.09;5071855;28;836;-64
2023/05/26 07:27:28;;;;;;;;;;;;;;;27.83;74.28;99647.91;5071502;28;824;-64
2023/05/26 07:29:55;;;;;;;;;;;;;;;27.56;72.45;99643.94;5071637;28;1977;-64
2023/05/26 07:32:21;;;;;;;;;;;;;;;26.34;77.86;99655.09;5071745;28;887;-65
2023/05/26 07:46:59;;;;;;;;;;;;;;;25.54;83.54;99676.06;5071835;28;670;-63
2023/05/26 07:49:26;;;;;;;;;;;;;;;26.58;80.64;99674.41;5071361;28;1894;-65
2023/05/26 07:51:53;;;;;;;;;;;;;;;28.53;75.48;99678.91;5071498;28;847;-62
2023/05/26 07:54:20;;;;;;;;;;;;;;;29.77;67.42;99682.44;5071399;28;922;-62
2023/05/26 07:56:47;;;;;;;;;;;;;;;30.64;64.99;99680.00;5071409;28;808;-63
2023/05/26 07:59:15;;;;;;;;;;;;;;;31.28;61.65;99684.75;5071345;28;890;-62
2023/05/26 08:01:41;;;;;;;;;;;;;;;30.50;60.21;99693.47;5071622;28;945;-62
2023/05/26 08:04:07;;;;;;;;;;;;;;;31.09;60.86;99686.97;5071644;28;851;-62
2023/05/26 08:06:35;;;;;;;;;;;;;;;31.36;57.00;99690.56;5071251;28;876;-62
2023/05/26 08:09:02;;;;;;;;;;;;;;;31.50;56.38;99689.25;5071198;28;1356;-62
2023/05/26 08:11:29;;;;;;;;;;;;;;;31.16;55.30;99686.31;5071112;28;1890;-61
2023/05/26 08:13:56;;;;;;;;;;;;;;;31.01;56.61;99686.09;5071240;28;828;-61
2023/05/26 08:16:23;;;;;;;;;;;;;;;31.72;55.78;99678.66;5071296;28;816;-62
2023/05/26 08:18:50;;;;;;;;;;;;;;;32.02;55.33;99688.91;5071114;28;891;-61
2023/05/26 08:21:17;;;;;;;;;;;;;;;32.00;55.69;99680.88;5071149;28;886;-62
2023/05/26 08:23:44;;;;;;;;;;;;;;;32.18;51.45;99687.75;5071216;28;867;-61
2023/05/26 08:26:10;;;;;;;;;;;;;;;31.61;51.37;99693.94;5071145;28;844;-61
2023/05/26 08:28:37;;;;;;;;;;;;;;;31.46;52.85;99688.81;5071076;28;899;-62
2023/05/26 08:31:05;;;;;;;;;;;;;;;30.98;50.55;99693.66;5071032;28;1972;-63
2023/05/26 08:33:32;;;;;;;;;;;;;;;30.32;53.16;99694.28;5071354;28;1210;-62
2023/05/26 08:35:59;;;;;;;;;;;;;;;29.30;54.68;99686.38;5071195;28;839;-63
2023/05/26 08:38:26;;;;;;;;;;;;;;;28.98;56.14;99686.22;5072031;28;973;-62
2023/05/26 08:40:56;;;;;;;;;;;;;;;28.54;58.42;99688.22;5074916;28;855;-64
2023/05/26 08:43:27;;;;;;;;;;;;;;;29.02;58.35;99686.66;5075294;28;874;-63
2023/05/26 08:45:55;;;;;;;;;;;;;;;29.14;58.22;99693.03;5074844;28;850;-64
2023/05/26 08:48:22;;;;;;;;;;;;;;;28.17;59.98;99689.53;5074666;28;851;-62
2023/05/26 08:50:51;;;;;;;;;;;;;;;27.14;62.81;99687.69;5073382;28;1949;-64
2023/05/26 08:53:20;;;;;;;;;;;;;;;26.44;62.08;99693.22;5074722;28;835;-63
2023/05/26 08:55:47;;;;;;;;;;;;;;;25.78;64.45;99670.72;5074887;28;912;-63
2023/05/26 08:58:14;;;;;;;;;;;;;;;25.27;66.64;99681.13;5075153;28;796;-64
2023/05/26 09:00:41;;;;;;;;;;;;;;;25.55;66.98;99669.13;5075221;28;765;-64
2023/05/26 09:03:09;;;;;;;;;;;;;;;26.26;65.46;99680.31;5074531;28;827;-63
2023/05/26 09:05:36;;;;;;;;;;;;;;;26.16;62.43;99671.31;5075377;28;780;-65
2023/05/26 09:08:02;;;;;;;;;;;;;;;25.61;63.42;99675.59;5074832;28;837;-65
2023/05/26 09:10:32;;;;;;;;;;;;;;;25.32;64.78;99673.94;5074663;28;1955;-64
2023/05/26 09:13:06;;;;;;;;;;;;;;;25.32;65.07;99669.03;5074279;28;860;-64
2023/05/26 09:15:33;;;;;;;;;;;;;;;25.19;65.01;99663.06;5074348;28;870;-65
2023/05/26 09:18:02;;;;;;;;;;;;;;;24.99;66.10;99673.25;5074046;28;816;-65
2023/05/26 09:20:29;;;;;;;;;;;;;;;24.70;64.70;99667.94;5074252;28;832;-64
2023/05/26 09:22:57;;;;;;;;;;;;;;;24.01;66.29;99675.06;5074232;28;836;-64
2023/05/26 09:25:44;;;;;;;;;;;;;;;24.00;67.55;99679.19;5074030;28;945;-63
2023/05/26 09:28:14;;;;;;;;;;;;;;;24.04;67.55;99665.59;5073941;28;1229;-64
2023/05/26 09:30:44;;;;;;;;;;;;;;;23.81;68.39;99669.47;5073879;28;1913;-63
2023/05/26 09:33:15;;;;;;;;;;;;;;;23.68;69.50;99660.59;5073969;28;847;-64
2023/05/26 09:35:42;;;;;;;;;;;;;;;23.73;70.16;99659.88;5074417;28;787;-63
2023/05/26 09:38:10;;;;;;;;;;;;;;;24.03;70.31;99658.41;5074275;28;1185;-63
2023/05/26 10:12:25;;;;;;;;;;;;;;;25.59;63.69;99598.91;4994000;28;871;-52
2023/05/26 10:14:53;;;;;;;;;;;;;;;25.45;63.38;99609.16;4994110;28;847;-53
2023/05/26 10:17:22;;;;;;;;;;;;;;;25.05;64.04;99606.19;4993939;28;816;-51
2023/05/26 10:19:50;;;;;;;;;;;;;;;25.06;62.87;99610.56;4993972;28;816;-53
2023/05/26 10:22:29;;;;;;;;;;;;;;;24.73;64.03;99599.09;4993825;28;907;-54
2023/05/26 10:25:03;;;;;;;;;;;;;;;25.16;63.81;99590.56;4994150;28;812;-55
2023/05/26 10:27:52;;;;;;;;;;;;;;;26.50;61.97;99586.31;4993765;28;856;-54
2023/05/26 10:30:19;;;;;;;;;;;;;;;27.26;58.96;99581.41;4974203;28;1969;-54
2023/05/26 10:32:46;;;;;;;;;;;;;;;27.80;56.99;99577.19;4993708;28;824;-55
2023/05/26 10:35:22;;;;;;;;;;;;;;;28.18;57.23;99583.09;4993577;28;848;-54
2023/05/26 10:37:50;;;;;;;;;;;;;;;27.80;57.79;99583.66;4992306;28;1259;-53
2023/05/26 10:40:35;;;;;;;;;;;;;;;27.76;59.20;99594.53;4993336;28;892;-55
2023/05/26 10:43:10;;;;;;;;;;;;;;;27.16;58.21;99589.44;4992167;28;1158;-55
2023/05/26 10:45:42;;;;;;;;;;;;;;;26.65;58.99;99589.66;4993564;28;864;-55
2023/05/26 10:48:12;;;;;;;;;;;;;;;26.51;59.50;99581.41;4993353;28;855;-54
2023/05/26 10:50:58;;;;;;;;;;;;;;;26.56;60.16;99589.91;4993215;28;1890;-56
2023/05/26 10:53:25;;;;;;;;;;;;;;;27.23;59.26;99577.56;4993195;28;804;-55
2023/05/26 10:55:54;;;;;;;;;;;;;;;27.19;58.44;99567.78;4993170;28;883;-55
2023/05/26 10:58:41;;;;;;;;;;;;;;;26.67;59.72;99567.22;4993160;28;856;-55
2023/05/26 11:01:20;;;;;;;;;;;;;;;25.92;61.11;99566.28;4992343;28;1667;-55
2023/05/26 11:03:47;;;;;;;;;;;;;;;25.44;61.62;99570.84;4993315;28;884;-53
2023/05/26 11:06:15;;;;;;;;;;;;;;;25.14;62.94;99576.16;4992994;28;910;-55
2023/05/26 11:08:50;;;;;;;;;;;;;;;24.90;61.74;99566.06;4993675;28;773;-55
2023/05/26 11:11:29;;;;;;;;;;;;;;;24.67;61.82;99570.06;5018813;28;1883;-54
2023/05/26 11:26:26;;;;;;;;;;;;;;;24.02;68.21;99572.16;5032275;28;674;-55
2023/05/26 11:28:53;;;;;;;;;;;;;;;24.03;67.72;99568.06;5031891;28;840;-56
2023/05/26 11:31:21;;;;;;;;;;;;;;;24.04;65.91;99568.84;5031813;28;1922;-56
2023/05/26 11:33:48;;;;;;;;;;;;;;;24.05;65.32;99567.59;5031825;28;848;-56
2023/05/26 11:36:16;;;;;;;;;;;;;;;24.04;64.32;99566.78;5031777;28;821;-55
2023/05/26 11:38:44;;;;;;;;;;;;;;;24.04;64.23;99563.97;5032026;28;852;-56
2023/05/26 11:41:12;;;;;;;;;;;;;;;24.10;64.39;99563.25;5031676;28;903;-55
2023/05/26 11:43:39;;;;;;;;;;;;;;;24.14;64.82;99561.75;5031719;28;875;-56
2023/05/26 11:46:13;;;;;;;;;;;;;;;23.99;65.17;99558.28;5031591;28;824;-55
2023/05/26 11:48:41;;;;;;;;;;;;;;;23.84;66.45;99550.75;5031686;28;864;-55
2023/05/26 11:51:11;;;;;;;;;;;;;;;23.89;67.07;99548.47;5031473;28;1918;-55
2023/05/26 11:53:39;;;;;;;;;;;;;;;23.79;67.62;99545.03;5031582;28;843;-56
2023/05/26 11:56:09;;;;;;;;;;;;;;;23.65;67.81;99549.53;5031544;28;883;-56
2023/05/26 11:58:37;;;;;;;;;;;;;;;23.61;68.50;99546.91;5031519;28;825;-56
2023/05/26 12:01:05;;;;;;;;;;;;;;;23.70;69.10;99545.19;5031402;28;903;-56
2023/05/26 12:03:36;;;;;;;;;;;;;;;23.75;68.84;99538.84;5031491;28;863;-56
2023/05/26 12:06:07;;;;;;;;;;;;;;;23.84;68.75;99536.63;5031448;28;823;-56
2023/05/26 12:21:27;;;;;;;;;;;;;;;23.94;69.88;99517.47;4996153;28;725;-55
2023/05/26 12:36:05;;;;;;;;;;;;;;;26.16;61.05;99484.41;4996106;28;611;-55
2023/05/26 12:38:41;;;;;;;;;;;;;;;26.99;59.05;99483.81;4995706;28;820;-56
2023/05/26 12:41:08;;;;;;;;;;;;;;;27.72;55.37;99483.31;4995764;28;817;-56
2023/05/26 12:43:35;;;;;;;;;;;;;;;27.86;54.61;99472.88;4995796;28;892;-56
2023/05/26 12:46:02;;;;;;;;;;;;;;;28.17;53.73;99465.84;4995674;28;823;-55
2023/05/26 12:48:29;;;;;;;;;;;;;;;28.03;53.54;99467.78;5010618;28;1344;-56
2023/05/26 13:03:07;;;;;;;;;;;;;;;29.37;50.80;99465.84;4995594;28;1048;-56
2023/05/26 13:05:34;;;;;;;;;;;;;;;29.23;50.42;99462.16;4995250;28;880;-56
2023/05/26 13:08:01;;;;;;;;;;;;;;;29.29;50.48;99460.75;4995016;28;875;-56
2023/05/26 13:10:28;;;;;;;;;;;;;;;29.67;49.12;99459.91;4995514;28;1956;-56
2023/05/26 13:12:55;;;;;;;;;;;;;;;30.15;47.53;99460.88;4995066;28;825;-56
2023/05/26 13:15:22;;;;;;;;;;;;;;;30.39;46.27;99467.69;4995087;28;828;-56
2023/05/26 13:17:48;;;;;;;;;;;;;;;30.57;44.42;99466.75;4995060;28;889;-56
2023/05/26 13:20:15;;;;;;;;;;;;;;;30.86;43.17;99469.78;5019485;28;1404;-55
2023/05/26 13:22:45;;;;;;;;;;;;;;;30.50;42.62;99471.06;5016606;28;870;-55
2023/05/26 13:25:12;;;;;;;;;;;;;;;30.66;41.85;99468.41;5033721;28;959;-56
2023/05/26 13:27:39;;;;;;;;;;;;;;;31.32;39.57;99447.44;5034522;28;831;-56
2023/05/26 13:30:06;;;;;;;;;;;;;;;31.68;37.39;99458.25;5034432;28;1959;-56
2023/05/26 13:32:36;;;;;;;;;;;;;;;31.70;37.42;99456.38;5034341;28;889;-56
2023/05/26 13:35:03;;;;;;;;;;;;;;;31.81;36.95;99455.31;5034129;28;820;-56
2023/05/26 13:37:30;;;;;;;;;;;;;;;32.76;35.86;99448.28;5033944;28;875;-56
2023/05/26 13:39:56;;;;;;;;;;;;;;;33.07;35.09;99446.28;5033982;28;887;-56
2023/05/26 13:42:23;;;;;;;;;;;;;;;32.99;34.79;99441.84;5033905;28;879;-56
2023/05/26 13:44:50;;;;;;;;;;;;;;;32.96;34.83;99443.75;5033921;28;868;-56
2023/05/26 13:47:17;;;;;;;;;;;;;;;32.86;34.20;99443.53;5033812;28;907;-56
2023/05/26 13:49:44;;;;;;;;;;;;;;;32.58;34.41;99446.47;5033929;28;1930;-56
2023/05/26 13:52:11;;;;;;;;;;;;;;;32.42;34.11;99445.63;5033765;28;848;-56
2023/05/26 13:54:38;;;;;;;;;;;;;;;32.45;34.30;99442.38;5034011;28;873;-56
2023/05/26 13:57:08;;;;;;;;;;;;;;;31.51;35.93;99450.13;5016052;28;2075;-56
2023/05/26 13:59:35;;;;;;;;;;;;;;;32.18;35.40;99439.03;5033640;28;824;-56
2023/05/26 14:02:02;;;;;;;;;;;;;;;32.58;34.32;99437.91;5033707;28;819;-56
2023/05/26 14:04:28;;;;;;;;;;;;;;;32.21;34.51;99440.75;5033545;28;903;-56
2023/05/26 14:06:55;;;;;;;;;;;;;;;31.59;35.64;99439.53;5033507;28;956;-56
2023/05/26 14:09:22;;;;;;;;;;;;;;;31.94;36.26;99440.16;5033332;28;871;-56
2023/05/26 14:11:48;;;;;;;;;;;;;;;32.00;35.76;99440.81;5033339;28;1890;-56
2023/05/26 14:14:15;;;;;;;;;;;;;;;32.23;36.33;99428.75;5033402;28;805;-56
2023/05/26 14:16:42;;;;;;;;;;;;;;;32.60;35.64;99421.69;5033248;28;832;-56
2023/05/26 14:19:09;;;;;;;;;;;;;;;33.02;35.49;99421.44;5033088;28;1165;-56
2023/05/26 14:21:36;;;;;;;;;;;;;;;33.11;35.64;99429.50;5033443;28;891;-57
2023/05/26 14:24:03;;;;;;;;;;;;;;;32.09;36.43;99442.38;5033185;28;855;-56
2023/05/26 14:26:29;;;;;;;;;;;;;;;30.07;41.04;99457.13;5033131;28;851;-56
2023/05/26 14:28:56;;;;;;;;;;;;;;;28.08;47.21;99469.06;5033112;28;867;-56
2023/05/26 14:31:23;;;;;;;;;;;;;;;26.12;53.83;99477.44;5032952;28;1918;-56
2023/05/26 14:33:50;;;;;;;;;;;;;;;23.97;65.34;99493.88;5033041;28;812;-54
2023/05/26 14:36:17;;;;;;;;;;;;;;;20.85;100.00;99534.41;5031908;28;824;-57
2023/05/26 14:38:52;;;;;;;;;;;;;;;18.59;100.00;99530.03;5032847;28;907;-72
2023/05/26 14:41:20;;;;;;;;;;;;;;;17.52;100.00;99527.44;5015347;28;1247;-58
2023/05/26 14:43:47;;;;;;;;;;;;;;;17.20;100.00;99521.03;5032786;28;886;-58
2023/05/26 14:46:14;;;;;;;;;;;;;;;17.22;100.00;99520.56;5032702;28;819;-58
2023/05/26 14:48:40;;;;;;;;;;;;;;;17.31;100.00;99521.41;5032733;28;898;-58
2023/05/26 14:51:08;;;;;;;;;;;;;;;17.42;100.00;99531.41;5032616;28;1894;-59
2023/05/26 14:53:35;;;;;;;;;;;;;;;17.47;100.00;99526.00;5032582;28;836;-60
2023/05/26 14:56:02;;;;;;;;;;;;;;;17.39;100.00;99523.94;5032591;28;856;-61
2023/05/26 14:58:29;;;;;;;;;;;;;;;17.12;100.00;99512.13;5032711;28;824;-60
2023/05/26 15:00:56;;;;;;;;;;;;;;;16.83;100.00;99504.00;5032664;28;828;-61